sensor_id;sensor_type;location;lat;lon;timestamp;P1;durP1;ratioP1;P2;durP2;ratioP2
21825;SDS011;11075;47.944;11.776;2023-04-28T00:00:18;7.37;;;4.43;;
21825;SDS011;11075;47.944;11.776;2023-04-28T00:02:45;7.43;;;4.30;;
21825;SDS011;11075;47.944;11.776;2023-04-28T00:05:14;4.87;;;3.70;;
21825;SDS011;11075;47.944;11.776;2023-04-28T00:07:41;9.60;;;3.93;;
21825;SDS011;11075;47.944;11.776;2023-04-28T00:10:08;5.93;;;3.90;;
21825;SDS011;11075;47.944;11.776;2023-04-28T00:12:35;12.40;;;4.07;;
21825;SDS011;11075;47.944;11.776;2023-04-28T00:15:02;7.30;;;3.80;;
21825;SDS011;11075;47.944;11.776;2023-04-28T00:17:29;7.20;;;3.90;;
21825;SDS011;11075;47.944;11.776;2023-04-28T00:19:56;5.37;;;3.80;;
21825;SDS011;11075;47.944;11.776;2023-04-28T00:22:23;5.37;;;3.70;;
21825;SDS011;11075;47.944;11.776;2023-04-28T00:24:50;5.33;;;3.67;;
21825;SDS011;11075;47.944;11.776;2023-04-28T00:27:17;8.10;;;3.83;;
21825;SDS011;11075;47.944;11.776;2023-04-28T00:29:43;7.67;;;4.23;;
21825;SDS011;11075;47.944;11.776;2023-04-28T00:32:11;8.37;;;3.80;;
21825;SDS011;11075;47.944;11.776;2023-04-28T00:34:39;5.07;;;3.70;;
21825;SDS011;11075;47.944;11.776;2023-04-28T00:37:05;4.83;;;3.40;;
21825;SDS011;11075;47.944;11.776;2023-04-28T00:39:32;4.30;;;3.20;;
21825;SDS011;11075;47.944;11.776;2023-04-28T00:41:59;5.33;;;3.23;;
21825;SDS011;11075;47.944;11.776;2023-04-28T00:44:27;5.73;;;3.70;;
21825;SDS011;11075;47.944;11.776;2023-04-28T00:46:55;6.37;;;3.70;;
21825;SDS011;11075;47.944;11.776;2023-04-28T00:49:22;5.47;;;3.70;;
21825;SDS011;11075;47.944;11.776;2023-04-28T00:51:48;4.40;;;3.57;;
21825;SDS011;11075;47.944;11.776;2023-04-28T00:54:15;4.90;;;3.60;;
21825;SDS011;11075;47.944;11.776;2023-04-28T00:56:43;3.83;;;3.20;;
21825;SDS011;11075;47.944;11.776;2023-04-28T00:59:10;6.27;;;3.50;;
21825;SDS011;11075;47.944;11.776;2023-04-28T01:01:37;8.00;;;4.00;;
21825;SDS011;11075;47.944;11.776;2023-04-28T01:04:04;5.77;;;3.70;;
21825;SDS011;11075;47.944;11.776;2023-04-28T01:06:33;5.83;;;3.60;;
21825;SDS011;11075;47.944;11.776;2023-04-28T01:09:01;7.23;;;3.70;;
21825;SDS011;11075;47.944;11.776;2023-04-28T01:11:29;5.37;;;3.70;;
21825;SDS011;11075;47.944;11.776;2023-04-28T01:14:19;6.53;;;3.37;;
21825;SDS011;11075;47.944;11.776;2023-04-28T01:16:46;5.10;;;3.40;;
21825;SDS011;11075;47.944;11.776;2023-04-28T01:19:15;5.57;;;3.70;;
21825;SDS011;11075;47.944;11.776;2023-04-28T01:21:49;4.73;;;3.50;;
21825;SDS011;11075;47.944;11.776;2023-04-28T01:24:20;4.13;;;2.97;;
21825;SDS011;11075;47.944;11.776;2023-04-28T01:26:48;6.13;;;3.37;;
21825;SDS011;11075;47.944;11.776;2023-04-28T01:29:15;11.43;;;3.80;;
21825;SDS011;11075;47.944;11.776;2023-04-28T01:31:42;4.73;;;3.50;;
21825;SDS011;11075;47.944;11.776;2023-04-28T01:34:08;6.07;;;3.43;;
21825;SDS011;11075;47.944;11.776;2023-04-28T01:36:35;3.90;;;3.50;;
21825;SDS011;11075;47.944;11.776;2023-04-28T01:39:03;4.00;;;2.83;;
21825;SDS011;11075;47.944;11.776;2023-04-28T01:41:31;6.30;;;3.60;;
21825;SDS011;11075;47.944;11.776;2023-04-28T01:44:02;5.80;;;3.37;;
21825;SDS011;11075;47.944;11.776;2023-04-28T01:46:30;4.77;;;3.30;;
21825;SDS011;11075;47.944;11.776;2023-04-28T01:48:57;3.87;;;3.03;;
21825;SDS011;11075;47.944;11.776;2023-04-28T01:51:24;4.33;;;3.10;;
21825;SDS011;11075;47.944;11.776;2023-04-28T01:53:52;3.67;;;3.20;;
21825;SDS011;11075;47.944;11.776;2023-04-28T01:56:19;6.60;;;3.53;;
21825;SDS011;11075;47.944;11.776;2023-04-28T01:58:48;6.27;;;3.40;;
21825;SDS011;11075;47.944;11.776;2023-04-28T02:01:15;5.50;;;3.50;;
21825;SDS011;11075;47.944;11.776;2023-04-28T02:03:42;4.23;;;3.47;;
21825;SDS011;11075;47.944;11.776;2023-04-28T02:06:10;4.57;;;3.10;;
21825;SDS011;11075;47.944;11.776;2023-04-28T02:08:37;5.63;;;3.50;;
21825;SDS011;11075;47.944;11.776;2023-04-28T02:11:04;5.53;;;3.97;;
21825;SDS011;11075;47.944;11.776;2023-04-28T02:13:31;6.63;;;4.23;;
21825;SDS011;11075;47.944;11.776;2023-04-28T02:16:01;5.03;;;4.03;;
21825;SDS011;11075;47.944;11.776;2023-04-28T02:18:28;6.53;;;4.43;;
21825;SDS011;11075;47.944;11.776;2023-04-28T02:21:06;6.20;;;4.33;;
21825;SDS011;11075;47.944;11.776;2023-04-28T02:23:34;8.20;;;4.27;;
21825;SDS011;11075;47.944;11.776;2023-04-28T02:26:03;5.97;;;4.47;;
21825;SDS011;11075;47.944;11.776;2023-04-28T02:28:31;7.33;;;4.20;;
21825;SDS011;11075;47.944;11.776;2023-04-28T02:31:07;6.13;;;4.30;;
21825;SDS011;11075;47.944;11.776;2023-04-28T02:33:36;5.13;;;3.70;;
21825;SDS011;11075;47.944;11.776;2023-04-28T02:36:04;6.77;;;4.40;;
21825;SDS011;11075;47.944;11.776;2023-04-28T02:38:31;5.23;;;3.77;;
21825;SDS011;11075;47.944;11.776;2023-04-28T02:43:35;7.27;;;3.57;;
21825;SDS011;11075;47.944;11.776;2023-04-28T02:46:03;6.87;;;3.70;;
21825;SDS011;11075;47.944;11.776;2023-04-28T02:48:30;9.10;;;4.20;;
21825;SDS011;11075;47.944;11.776;2023-04-28T02:50:58;6.07;;;3.90;;
21825;SDS011;11075;47.944;11.776;2023-04-28T02:53:25;8.63;;;4.13;;
21825;SDS011;11075;47.944;11.776;2023-04-28T02:55:53;6.13;;;3.83;;
21825;SDS011;11075;47.944;11.776;2023-04-28T02:58:19;5.50;;;3.73;;
21825;SDS011;11075;47.944;11.776;2023-04-28T03:00:47;7.60;;;3.87;;
21825;SDS011;11075;47.944;11.776;2023-04-28T03:03:15;5.10;;;3.53;;
21825;SDS011;11075;47.944;11.776;2023-04-28T03:05:43;4.50;;;3.33;;
21825;SDS011;11075;47.944;11.776;2023-04-28T03:08:09;6.87;;;3.97;;
21825;SDS011;11075;47.944;11.776;2023-04-28T03:10:36;4.47;;;3.50;;
21825;SDS011;11075;47.944;11.776;2023-04-28T03:13:03;4.70;;;3.40;;
21825;SDS011;11075;47.944;11.776;2023-04-28T03:15:30;9.70;;;3.43;;
21825;SDS011;11075;47.944;11.776;2023-04-28T03:17:57;9.67;;;3.97;;
21825;SDS011;11075;47.944;11.776;2023-04-28T03:20:24;5.60;;;3.33;;
21825;SDS011;11075;47.944;11.776;2023-04-28T03:22:51;4.77;;;3.63;;
21825;SDS011;11075;47.944;11.776;2023-04-28T03:25:18;4.70;;;3.53;;
21825;SDS011;11075;47.944;11.776;2023-04-28T03:27:49;5.43;;;4.13;;
21825;SDS011;11075;47.944;11.776;2023-04-28T03:30:16;7.90;;;3.97;;
21825;SDS011;11075;47.944;11.776;2023-04-28T03:32:44;6.77;;;3.03;;
21825;SDS011;11075;47.944;11.776;2023-04-28T03:35:11;6.70;;;3.60;;
21825;SDS011;11075;47.944;11.776;2023-04-28T03:37:38;5.57;;;3.30;;
21825;SDS011;11075;47.944;11.776;2023-04-28T03:40:05;7.20;;;3.37;;
21825;SDS011;11075;47.944;11.776;2023-04-28T03:42:53;5.30;;;3.63;;
21825;SDS011;11075;47.944;11.776;2023-04-28T03:45:27;5.00;;;2.90;;
21825;SDS011;11075;47.944;11.776;2023-04-28T03:47:55;4.20;;;3.17;;
21825;SDS011;11075;47.944;11.776;2023-04-28T03:50:22;4.47;;;3.07;;
21825;SDS011;11075;47.944;11.776;2023-04-28T03:52:52;6.47;;;3.50;;
21825;SDS011;11075;47.944;11.776;2023-04-28T03:55:19;7.03;;;3.50;;
21825;SDS011;11075;47.944;11.776;2023-04-28T03:57:45;4.57;;;3.43;;
21825;SDS011;11075;47.944;11.776;2023-04-28T04:00:12;4.60;;;3.47;;
21825;SDS011;11075;47.944;11.776;2023-04-28T04:02:45;4.73;;;3.50;;
21825;SDS011;11075;47.944;11.776;2023-04-28T04:05:14;5.53;;;3.40;;
21825;SDS011;11075;47.944;11.776;2023-04-28T04:07:41;6.00;;;3.30;;
21825;SDS011;11075;47.944;11.776;2023-04-28T04:10:08;5.33;;;2.90;;
21825;SDS011;11075;47.944;11.776;2023-04-28T04:12:38;4.23;;;2.80;;
21825;SDS011;11075;47.944;11.776;2023-04-28T04:15:05;5.57;;;3.10;;
21825;SDS011;11075;47.944;11.776;2023-04-28T04:17:33;5.40;;;3.17;;
21825;SDS011;11075;47.944;11.776;2023-04-28T04:20:00;3.93;;;3.13;;
21825;SDS011;11075;47.944;11.776;2023-04-28T04:22:26;5.77;;;3.17;;
21825;SDS011;11075;47.944;11.776;2023-04-28T04:24:54;5.80;;;3.27;;
21825;SDS011;11075;47.944;11.776;2023-04-28T04:27:21;4.87;;;3.43;;
21825;SDS011;11075;47.944;11.776;2023-04-28T04:29:47;5.20;;;3.20;;
21825;SDS011;11075;47.944;11.776;2023-04-28T04:32:15;4.10;;;2.87;;
21825;SDS011;11075;47.944;11.776;2023-04-28T04:34:41;6.30;;;2.67;;
21825;SDS011;11075;47.944;11.776;2023-04-28T04:37:09;5.93;;;3.17;;
21825;SDS011;11075;47.944;11.776;2023-04-28T04:39:46;4.70;;;3.20;;
21825;SDS011;11075;47.944;11.776;2023-04-28T04:42:14;4.57;;;3.07;;
21825;SDS011;11075;47.944;11.776;2023-04-28T04:45:17;5.90;;;3.00;;
21825;SDS011;11075;47.944;11.776;2023-04-28T04:47:45;4.37;;;3.27;;
21825;SDS011;11075;47.944;11.776;2023-04-28T04:50:11;3.90;;;3.00;;
21825;SDS011;11075;47.944;11.776;2023-04-28T04:52:38;5.83;;;3.10;;
21825;SDS011;11075;47.944;11.776;2023-04-28T04:55:05;3.33;;;3.00;;
21825;SDS011;11075;47.944;11.776;2023-04-28T04:57:33;4.57;;;3.40;;
21825;SDS011;11075;47.944;11.776;2023-04-28T05:00:18;4.93;;;2.80;;
21825;SDS011;11075;47.944;11.776;2023-04-28T05:02:45;3.83;;;2.93;;
21825;SDS011;11075;47.944;11.776;2023-04-28T05:05:15;5.17;;;3.00;;
21825;SDS011;11075;47.944;11.776;2023-04-28T05:08:14;3.70;;;2.90;;
21825;SDS011;11075;47.944;11.776;2023-04-28T05:10:41;4.17;;;3.40;;
21825;SDS011;11075;47.944;11.776;2023-04-28T05:13:08;4.67;;;2.90;;
21825;SDS011;11075;47.944;11.776;2023-04-28T05:15:35;5.70;;;2.70;;
21825;SDS011;11075;47.944;11.776;2023-04-28T05:18:24;3.97;;;3.23;;
21825;SDS011;11075;47.944;11.776;2023-04-28T05:20:52;3.63;;;3.07;;
21825;SDS011;11075;47.944;11.776;2023-04-28T05:23:19;3.83;;;2.80;;
21825;SDS011;11075;47.944;11.776;2023-04-28T05:25:46;4.43;;;3.00;;
21825;SDS011;11075;47.944;11.776;2023-04-28T05:28:13;3.07;;;2.77;;
21825;SDS011;11075;47.944;11.776;2023-04-28T05:30:42;3.40;;;2.80;;
21825;SDS011;11075;47.944;11.776;2023-04-28T05:33:11;3.33;;;3.00;;
21825;SDS011;11075;47.944;11.776;2023-04-28T05:35:38;4.87;;;3.00;;
21825;SDS011;11075;47.944;11.776;2023-04-28T05:38:05;3.60;;;2.97;;
21825;SDS011;11075;47.944;11.776;2023-04-28T05:40:32;5.13;;;2.77;;
21825;SDS011;11075;47.944;11.776;2023-04-28T05:42:59;6.07;;;2.93;;
21825;SDS011;11075;47.944;11.776;2023-04-28T05:45:26;3.83;;;2.93;;
21825;SDS011;11075;47.944;11.776;2023-04-28T05:47:53;5.00;;;2.53;;
21825;SDS011;11075;47.944;11.776;2023-04-28T05:50:21;3.97;;;2.67;;
21825;SDS011;11075;47.944;11.776;2023-04-28T05:52:49;4.80;;;2.40;;
21825;SDS011;11075;47.944;11.776;2023-04-28T05:55:16;5.60;;;3.03;;
21825;SDS011;11075;47.944;11.776;2023-04-28T05:57:43;3.87;;;3.17;;
21825;SDS011;11075;47.944;11.776;2023-04-28T06:00:18;4.53;;;2.77;;
21825;SDS011;11075;47.944;11.776;2023-04-28T06:02:46;2.80;;;2.40;;
21825;SDS011;11075;47.944;11.776;2023-04-28T06:05:13;4.93;;;3.23;;
21825;SDS011;11075;47.944;11.776;2023-04-28T06:07:41;3.93;;;3.33;;
21825;SDS011;11075;47.944;11.776;2023-04-28T06:10:08;5.73;;;3.27;;
21825;SDS011;11075;47.944;11.776;2023-04-28T06:12:35;5.67;;;2.67;;
21825;SDS011;11075;47.944;11.776;2023-04-28T06:15:03;3.83;;;2.80;;
21825;SDS011;11075;47.944;11.776;2023-04-28T06:17:31;6.00;;;2.60;;
21825;SDS011;11075;47.944;11.776;2023-04-28T06:19:58;3.73;;;2.50;;
21825;SDS011;11075;47.944;11.776;2023-04-28T06:22:26;4.30;;;3.10;;
21825;SDS011;11075;47.944;11.776;2023-04-28T06:24:53;4.10;;;2.73;;
21825;SDS011;11075;47.944;11.776;2023-04-28T06:27:27;3.63;;;2.63;;
21825;SDS011;11075;47.944;11.776;2023-04-28T06:29:58;3.37;;;2.63;;
21825;SDS011;11075;47.944;11.776;2023-04-28T06:32:25;3.93;;;2.70;;
21825;SDS011;11075;47.944;11.776;2023-04-28T06:34:52;4.80;;;2.80;;
21825;SDS011;11075;47.944;11.776;2023-04-28T06:37:18;4.60;;;2.77;;
21825;SDS011;11075;47.944;11.776;2023-04-28T06:39:46;3.57;;;2.83;;
21825;SDS011;11075;47.944;11.776;2023-04-28T06:42:14;3.77;;;3.20;;
21825;SDS011;11075;47.944;11.776;2023-04-28T06:44:51;3.83;;;2.60;;
21825;SDS011;11075;47.944;11.776;2023-04-28T06:47:18;3.03;;;2.67;;
21825;SDS011;11075;47.944;11.776;2023-04-28T06:49:45;4.87;;;2.53;;
21825;SDS011;11075;47.944;11.776;2023-04-28T06:52:15;4.23;;;2.53;;
21825;SDS011;11075;47.944;11.776;2023-04-28T06:54:42;2.53;;;2.33;;
21825;SDS011;11075;47.944;11.776;2023-04-28T06:57:08;3.77;;;2.00;;
21825;SDS011;11075;47.944;11.776;2023-04-28T06:59:35;6.47;;;1.97;;
21825;SDS011;11075;47.944;11.776;2023-04-28T07:02:02;2.37;;;1.77;;
21825;SDS011;11075;47.944;11.776;2023-04-28T07:04:29;2.30;;;1.67;;
21825;SDS011;11075;47.944;11.776;2023-04-28T07:06:56;3.40;;;1.73;;
21825;SDS011;11075;47.944;11.776;2023-04-28T07:09:23;2.53;;;2.00;;
21825;SDS011;11075;47.944;11.776;2023-04-28T07:11:50;1.50;;;1.40;;
21825;SDS011;11075;47.944;11.776;2023-04-28T07:14:17;2.90;;;1.60;;
21825;SDS011;11075;47.944;11.776;2023-04-28T07:16:44;1.53;;;1.43;;
21825;SDS011;11075;47.944;11.776;2023-04-28T07:19:12;2.17;;;1.73;;
21825;SDS011;11075;47.944;11.776;2023-04-28T07:21:38;1.87;;;1.60;;
21825;SDS011;11075;47.944;11.776;2023-04-28T07:24:05;1.73;;;1.63;;
21825;SDS011;11075;47.944;11.776;2023-04-28T07:26:32;1.53;;;1.43;;
21825;SDS011;11075;47.944;11.776;2023-04-28T07:28:59;2.03;;;1.80;;
21825;SDS011;11075;47.944;11.776;2023-04-28T07:31:27;1.97;;;1.77;;
21825;SDS011;11075;47.944;11.776;2023-04-28T07:33:54;1.90;;;1.80;;
21825;SDS011;11075;47.944;11.776;2023-04-28T07:36:21;3.70;;;2.17;;
21825;SDS011;11075;47.944;11.776;2023-04-28T07:38:49;2.80;;;1.77;;
21825;SDS011;11075;47.944;11.776;2023-04-28T07:41:16;2.70;;;1.53;;
21825;SDS011;11075;47.944;11.776;2023-04-28T07:43:44;2.43;;;1.70;;
21825;SDS011;11075;47.944;11.776;2023-04-28T07:46:11;2.67;;;1.83;;
21825;SDS011;11075;47.944;11.776;2023-04-28T07:48:39;1.87;;;1.67;;
21825;SDS011;11075;47.944;11.776;2023-04-28T07:51:06;4.43;;;2.50;;
21825;SDS011;11075;47.944;11.776;2023-04-28T07:53:33;2.63;;;1.97;;
21825;SDS011;11075;47.944;11.776;2023-04-28T07:56:01;3.70;;;2.10;;
21825;SDS011;11075;47.944;11.776;2023-04-28T07:58:27;5.20;;;2.00;;
21825;SDS011;11075;47.944;11.776;2023-04-28T08:00:54;4.15;;;1.88;;
21825;SDS011;11075;47.944;11.776;2023-04-28T08:03:21;2.37;;;1.70;;
21825;SDS011;11075;47.944;11.776;2023-04-28T08:05:48;2.73;;;1.87;;
21825;SDS011;11075;47.944;11.776;2023-04-28T08:08:16;4.87;;;1.73;;
21825;SDS011;11075;47.944;11.776;2023-04-28T08:10:42;2.13;;;1.63;;
21825;SDS011;11075;47.944;11.776;2023-04-28T08:13:09;2.83;;;1.77;;
21825;SDS011;11075;47.944;11.776;2023-04-28T08:15:36;4.10;;;1.83;;
21825;SDS011;11075;47.944;11.776;2023-04-28T08:18:03;2.60;;;1.63;;
21825;SDS011;11075;47.944;11.776;2023-04-28T08:20:30;2.10;;;1.80;;
21825;SDS011;11075;47.944;11.776;2023-04-28T08:22:58;1.87;;;1.57;;
21825;SDS011;11075;47.944;11.776;2023-04-28T08:25:25;2.10;;;1.87;;
21825;SDS011;11075;47.944;11.776;2023-04-28T08:27:52;1.67;;;1.43;;
21825;SDS011;11075;47.944;11.776;2023-04-28T08:30:22;3.25;;;1.45;;
21825;SDS011;11075;47.944;11.776;2023-04-28T08:32:50;1.70;;;1.47;;
21825;SDS011;11075;47.944;11.776;2023-04-28T08:35:17;1.67;;;1.30;;
21825;SDS011;11075;47.944;11.776;2023-04-28T08:37:44;1.60;;;1.50;;
21825;SDS011;11075;47.944;11.776;2023-04-28T08:40:13;4.75;;;1.80;;
21825;SDS011;11075;47.944;11.776;2023-04-28T08:42:39;4.15;;;1.60;;
21825;SDS011;11075;47.944;11.776;2023-04-28T08:45:07;1.98;;;1.38;;
21825;SDS011;11075;47.944;11.776;2023-04-28T08:47:40;1.90;;;1.70;;
21825;SDS011;11075;47.944;11.776;2023-04-28T08:50:12;2.47;;;1.80;;
21825;SDS011;11075;47.944;11.776;2023-04-28T08:52:40;3.17;;;1.98;;
21825;SDS011;11075;47.944;11.776;2023-04-28T08:55:08;1.98;;;1.70;;
21825;SDS011;11075;47.944;11.776;2023-04-28T09:00:09;2.17;;;1.90;;
21825;SDS011;11075;47.944;11.776;2023-04-28T09:02:37;2.78;;;2.00;;
21825;SDS011;11075;47.944;11.776;2023-04-28T09:05:08;4.32;;;2.33;;
21825;SDS011;11075;47.944;11.776;2023-04-28T09:07:37;2.70;;;2.00;;
21825;SDS011;11075;47.944;11.776;2023-04-28T09:10:18;2.25;;;1.73;;
21825;SDS011;11075;47.944;11.776;2023-04-28T09:12:52;3.42;;;2.20;;
21825;SDS011;11075;47.944;11.776;2023-04-28T09:15:26;13.80;;;10.18;;
21825;SDS011;11075;47.944;11.776;2023-04-28T09:18:03;21.80;;;14.07;;
21825;SDS011;11075;47.944;11.776;2023-04-28T09:20:32;24.88;;;14.93;;
21825;SDS011;11075;47.944;11.776;2023-04-28T09:23:13;13.82;;;9.45;;
21825;SDS011;11075;47.944;11.776;2023-04-28T09:26:10;12.88;;;10.27;;
21825;SDS011;11075;47.944;11.776;2023-04-28T09:28:37;3.78;;;3.22;;
21825;SDS011;11075;47.944;11.776;2023-04-28T09:31:04;11.02;;;4.97;;
21825;SDS011;11075;47.944;11.776;2023-04-28T09:33:31;7.63;;;4.22;;
21825;SDS011;11075;47.944;11.776;2023-04-28T09:35:58;4.30;;;3.25;;
21825;SDS011;11075;47.944;11.776;2023-04-28T09:38:25;5.50;;;3.60;;
21825;SDS011;11075;47.944;11.776;2023-04-28T09:40:56;6.32;;;5.25;;
21825;SDS011;11075;47.944;11.776;2023-04-28T09:43:29;6.00;;;4.20;;
21825;SDS011;11075;47.944;11.776;2023-04-28T09:45:58;6.13;;;3.90;;
21825;SDS011;11075;47.944;11.776;2023-04-28T09:50:59;5.18;;;4.68;;
21825;SDS011;11075;47.944;11.776;2023-04-28T09:53:30;4.38;;;3.28;;
21825;SDS011;11075;47.944;11.776;2023-04-28T09:55:59;4.47;;;4.07;;
21825;SDS011;11075;47.944;11.776;2023-04-28T09:58:30;4.35;;;3.28;;
21825;SDS011;11075;47.944;11.776;2023-04-28T10:01:02;5.97;;;5.37;;
21825;SDS011;11075;47.944;11.776;2023-04-28T10:03:31;6.82;;;4.47;;
21825;SDS011;11075;47.944;11.776;2023-04-28T10:05:59;6.55;;;4.13;;
21825;SDS011;11075;47.944;11.776;2023-04-28T10:08:27;5.47;;;4.40;;
21825;SDS011;11075;47.944;11.776;2023-04-28T10:10:55;6.20;;;3.17;;
21825;SDS011;11075;47.944;11.776;2023-04-28T10:13:23;5.45;;;4.90;;
21825;SDS011;11075;47.944;11.776;2023-04-28T10:15:51;8.77;;;3.65;;
21825;SDS011;11075;47.944;11.776;2023-04-28T10:18:21;5.38;;;3.03;;
21825;SDS011;11075;47.944;11.776;2023-04-28T10:20:49;3.58;;;3.13;;
21825;SDS011;11075;47.944;11.776;2023-04-28T10:29:31;3.50;;;2.70;;
21825;SDS011;11075;47.944;11.776;2023-04-28T10:38:10;4.25;;;3.25;;
21825;SDS011;11075;47.944;11.776;2023-04-28T10:40:44;8.00;;;2.95;;
21825;SDS011;11075;47.944;11.776;2023-04-28T10:56:22;7.57;;;4.68;;
21825;SDS011;11075;47.944;11.776;2023-04-28T10:58:54;4.32;;;3.65;;
21825;SDS011;11075;47.944;11.776;2023-04-28T11:01:28;2.53;;;2.33;;
21825;SDS011;11075;47.944;11.776;2023-04-28T11:03:58;1.85;;;1.75;;
21825;SDS011;11075;47.944;11.776;2023-04-28T11:06:44;0.60;;;0.60;;
21825;SDS011;11075;47.944;11.776;2023-04-28T11:19:35;0.73;;;0.50;;
21825;SDS011;11075;47.944;11.776;2023-04-28T11:22:05;1.85;;;0.50;;
21825;SDS011;11075;47.944;11.776;2023-04-28T11:24:38;0.80;;;0.80;;
21825;SDS011;11075;47.944;11.776;2023-04-28T11:27:05;0.85;;;0.40;;
21825;SDS011;11075;47.944;11.776;2023-04-28T11:32:06;0.90;;;0.50;;
21825;SDS011;11075;47.944;11.776;2023-04-28T11:34:35;1.50;;;0.30;;
21825;SDS011;11075;47.944;11.776;2023-04-28T11:37:02;0.95;;;0.52;;
21825;SDS011;11075;47.944;11.776;2023-04-28T11:39:31;0.85;;;0.40;;
21825;SDS011;11075;47.944;11.776;2023-04-28T11:42:00;2.65;;;0.40;;
21825;SDS011;11075;47.944;11.776;2023-04-28T11:44:29;0.55;;;0.40;;
21825;SDS011;11075;47.944;11.776;2023-04-28T11:46:57;1.10;;;0.40;;
21825;SDS011;11075;47.944;11.776;2023-04-28T11:49:27;1.63;;;0.40;;
21825;SDS011;11075;47.944;11.776;2023-04-28T11:51:56;0.93;;;0.50;;
21825;SDS011;11075;47.944;11.776;2023-04-28T11:54:26;2.23;;;0.60;;
21825;SDS011;11075;47.944;11.776;2023-04-28T11:56:55;2.00;;;0.30;;
21825;SDS011;11075;47.944;11.776;2023-04-28T11:59:24;1.10;;;0.30;;
21825;SDS011;11075;47.944;11.776;2023-04-28T12:01:57;0.45;;;0.30;;
21825;SDS011;11075;47.944;11.776;2023-04-28T12:04:26;1.02;;;0.30;;
21825;SDS011;11075;47.944;11.776;2023-04-28T12:07:13;2.40;;;0.50;;
21825;SDS011;11075;47.944;11.776;2023-04-28T12:09:42;3.13;;;0.63;;
21825;SDS011;11075;47.944;11.776;2023-04-28T12:12:12;3.70;;;0.50;;
21825;SDS011;11075;47.944;11.776;2023-04-28T12:14:53;1.08;;;0.30;;
21825;SDS011;11075;47.944;11.776;2023-04-28T12:20:05;1.67;;;0.40;;
21825;SDS011;11075;47.944;11.776;2023-04-28T12:22:43;0.30;;;0.30;;
21825;SDS011;11075;47.944;11.776;2023-04-28T12:25:11;0.47;;;0.43;;
21825;SDS011;11075;47.944;11.776;2023-04-28T12:27:39;0.40;;;0.30;;
21825;SDS011;11075;47.944;11.776;2023-04-28T12:32:46;0.95;;;0.40;;
21825;SDS011;11075;47.944;11.776;2023-04-28T12:35:14;0.70;;;0.55;;
21825;SDS011;11075;47.944;11.776;2023-04-28T12:37:41;0.50;;;0.50;;
21825;SDS011;11075;47.944;11.776;2023-04-28T12:40:09;2.28;;;0.30;;
21825;SDS011;11075;47.944;11.776;2023-04-28T12:42:36;5.70;;;3.05;;
21825;SDS011;11075;47.944;11.776;2023-04-28T12:45:04;1.58;;;1.15;;
21825;SDS011;11075;47.944;11.776;2023-04-28T12:47:32;0.75;;;0.55;;
21825;SDS011;11075;47.944;11.776;2023-04-28T12:49:59;3.05;;;0.68;;
21825;SDS011;11075;47.944;11.776;2023-04-28T12:52:26;1.00;;;0.40;;
21825;SDS011;11075;47.944;11.776;2023-04-28T12:54:54;4.57;;;0.70;;
21825;SDS011;11075;47.944;11.776;2023-04-28T12:57:20;0.77;;;0.77;;
21825;SDS011;11075;47.944;11.776;2023-04-28T12:59:47;0.70;;;0.70;;
21825;SDS011;11075;47.944;11.776;2023-04-28T13:02:14;0.22;;;0.22;;
21825;SDS011;11075;47.944;11.776;2023-04-28T13:04:41;0.57;;;0.40;;
21825;SDS011;11075;47.944;11.776;2023-04-28T13:07:11;0.20;;;0.20;;
21825;SDS011;11075;47.944;11.776;2023-04-28T13:09:39;0.55;;;0.40;;
21825;SDS011;11075;47.944;11.776;2023-04-28T13:12:09;2.83;;;0.40;;
21825;SDS011;11075;47.944;11.776;2023-04-28T13:14:37;1.67;;;0.40;;
21825;SDS011;11075;47.944;11.776;2023-04-28T13:17:04;0.50;;;0.30;;
21825;SDS011;11075;47.944;11.776;2023-04-28T13:19:31;1.05;;;0.50;;
21825;SDS011;11075;47.944;11.776;2023-04-28T13:21:59;0.40;;;0.40;;
21825;SDS011;11075;47.944;11.776;2023-04-28T13:24:30;0.88;;;0.50;;
21825;SDS011;11075;47.944;11.776;2023-04-28T13:26:59;0.65;;;0.30;;
21825;SDS011;11075;47.944;11.776;2023-04-28T13:29:26;0.38;;;0.30;;
21825;SDS011;11075;47.944;11.776;2023-04-28T13:31:53;0.50;;;0.50;;
21825;SDS011;11075;47.944;11.776;2023-04-28T13:34:20;0.30;;;0.30;;
21825;SDS011;11075;47.944;11.776;2023-04-28T13:36:48;0.10;;;0.10;;
21825;SDS011;11075;47.944;11.776;2023-04-28T13:39:20;0.30;;;0.20;;
21825;SDS011;11075;47.944;11.776;2023-04-28T13:41:47;0.30;;;0.30;;
21825;SDS011;11075;47.944;11.776;2023-04-28T13:44:15;1.75;;;0.30;;
21825;SDS011;11075;47.944;11.776;2023-04-28T13:46:42;0.30;;;0.30;;
21825;SDS011;11075;47.944;11.776;2023-04-28T13:49:09;2.08;;;0.93;;
21825;SDS011;11075;47.944;11.776;2023-04-28T13:51:36;0.90;;;0.60;;
21825;SDS011;11075;47.944;11.776;2023-04-28T13:54:03;1.02;;;0.80;;
21825;SDS011;11075;47.944;11.776;2023-04-28T13:56:34;0.17;;;0.17;;
21825;SDS011;11075;47.944;11.776;2023-04-28T13:59:02;1.15;;;0.30;;
21825;SDS011;11075;47.944;11.776;2023-04-28T14:01:29;0.65;;;0.30;;
21825;SDS011;11075;47.944;11.776;2023-04-28T14:03:56;1.13;;;0.30;;
21825;SDS011;11075;47.944;11.776;2023-04-28T14:06:24;0.10;;;0.10;;
21825;SDS011;11075;47.944;11.776;2023-04-28T14:08:52;3.60;;;1.00;;
21825;SDS011;11075;47.944;11.776;2023-04-28T14:11:20;0.68;;;0.20;;
21825;SDS011;11075;47.944;11.776;2023-04-28T14:13:47;0.85;;;0.25;;
21825;SDS011;11075;47.944;11.776;2023-04-28T14:16:14;0.82;;;0.30;;
21825;SDS011;11075;47.944;11.776;2023-04-28T14:18:41;0.28;;;0.20;;
21825;SDS011;11075;47.944;11.776;2023-04-28T14:21:09;0.20;;;0.20;;
21825;SDS011;11075;47.944;11.776;2023-04-28T14:23:36;0.47;;;0.22;;
21825;SDS011;11075;47.944;11.776;2023-04-28T14:26:03;0.30;;;0.30;;
21825;SDS011;11075;47.944;11.776;2023-04-28T14:28:30;1.85;;;0.20;;
21825;SDS011;11075;47.944;11.776;2023-04-28T14:30:57;0.17;;;0.17;;
21825;SDS011;11075;47.944;11.776;2023-04-28T14:33:28;0.45;;;0.20;;
21825;SDS011;11075;47.944;11.776;2023-04-28T14:35:55;0.20;;;0.20;;
21825;SDS011;11075;47.944;11.776;2023-04-28T14:38:22;0.20;;;0.20;;
21825;SDS011;11075;47.944;11.776;2023-04-28T14:40:49;0.35;;;0.30;;
21825;SDS011;11075;47.944;11.776;2023-04-28T14:43:16;2.47;;;0.30;;
21825;SDS011;11075;47.944;11.776;2023-04-28T14:45:44;0.82;;;0.17;;
21825;SDS011;11075;47.944;11.776;2023-04-28T14:48:10;0.17;;;0.17;;
21825;SDS011;11075;47.944;11.776;2023-04-28T14:50:40;0.20;;;0.20;;
21825;SDS011;11075;47.944;11.776;2023-04-28T14:53:08;0.20;;;0.20;;
21825;SDS011;11075;47.944;11.776;2023-04-28T14:55:35;0.28;;;0.10;;
21825;SDS011;11075;47.944;11.776;2023-04-28T14:58:02;0.30;;;0.30;;
21825;SDS011;11075;47.944;11.776;2023-04-28T15:00:29;2.40;;;0.30;;
21825;SDS011;11075;47.944;11.776;2023-04-28T15:02:56;0.10;;;0.10;;
21825;SDS011;11075;47.944;11.776;2023-04-28T15:05:24;0.20;;;0.15;;
21825;SDS011;11075;47.944;11.776;2023-04-28T15:07:51;0.17;;;0.17;;
21825;SDS011;11075;47.944;11.776;2023-04-28T15:10:18;0.25;;;0.20;;
21825;SDS011;11075;47.944;11.776;2023-04-28T15:12:46;0.30;;;0.30;;
21825;SDS011;11075;47.944;11.776;2023-04-28T15:15:14;0.30;;;0.30;;
21825;SDS011;11075;47.944;11.776;2023-04-28T15:17:41;1.52;;;0.40;;
21825;SDS011;11075;47.944;11.776;2023-04-28T15:20:09;0.38;;;0.30;;
21825;SDS011;11075;47.944;11.776;2023-04-28T15:22:36;0.30;;;0.30;;
21825;SDS011;11075;47.944;11.776;2023-04-28T15:25:03;0.32;;;0.32;;
21825;SDS011;11075;47.944;11.776;2023-04-28T15:27:31;0.20;;;0.20;;
21825;SDS011;11075;47.944;11.776;2023-04-28T15:29:58;0.28;;;0.28;;
21825;SDS011;11075;47.944;11.776;2023-04-28T15:32:25;1.23;;;0.50;;